Time;durP1;ratioP1;P1;durP2;ratioP2;P2;SDS_P1;SDS_P2;PMS_P1;PMS_P2;Temp;Humidity;BMP_temperature;BMP_pressure;BME280_temperature;BME280_humidity;BME280_pressure;Samples;Min_cycle;Max_cycle;Signal;HPM_P1;HPM_P2
2023/01/17 00:01:00;;;;;;;;;;;16.90;49.60;;;;;;10248114;28;868;-73
2023/01/17 00:11:29;;;;;;;;;;;16.80;49.60;;;;;;10244217;28;1456;-74
2023/01/17 00:16:25;;;;;;;;;;;16.90;49.70;;;;;;10247818;28;1906;-73
2023/01/17 00:26:34;;;;;;;;;;;16.90;49.60;;;;;;10246970;28;603;-73
2023/01/17 01:38:18;;;;;;;;;;;16.80;49.30;;;;;;10245197;28;1938;-74
2023/01/17 01:43:13;;;;;;;;;;;16.80;49.20;;;;;;10244571;28;794;-73
2023/01/17 01:48:08;;;;;;;;;;;16.80;49.80;;;;;;10244446;28;941;-73
2023/01/17 01:53:04;;;;;;;;;;;16.80;49.10;;;;;;10243803;28;846;-73
2023/01/17 01:57:59;;;;;;;;;;;16.80;49.30;;;;;;10244756;28;1958;-73
2023/01/17 02:02:55;;;;;;;;;;;16.80;49.30;;;;;;10244172;28;766;-73
2023/01/17 02:07:50;;;;;;;;;;;16.80;49.30;;;;;;10243834;28;1335;-73
2023/01/17 02:12:45;;;;;;;;;;;16.80;49.30;;;;;;10244820;28;862;-74
2023/01/17 02:17:41;;;;;;;;;;;16.80;49.30;;;;;;10244455;28;1918;-74
2023/01/17 02:22:36;;;;;;;;;;;16.80;49.20;;;;;;10243179;28;1380;-73
2023/01/17 02:27:31;;;;;;;;;;;16.70;49.30;;;;;;10250073;28;871;-73
2023/01/17 02:32:27;;;;;;;;;;;16.80;49.20;;;;;;10253021;28;868;-74
2023/01/17 02:37:22;;;;;;;;;;;16.70;49.20;;;;;;10251604;28;1970;-74
2023/01/17 02:42:17;;;;;;;;;;;16.70;49.20;;;;;;10252000;28;912;-73
2023/01/17 02:47:13;;;;;;;;;;;16.80;49.30;;;;;;10251156;28;811;-74
2023/01/17 02:52:09;;;;;;;;;;;16.80;49.20;;;;;;10251583;28;970;-74
2023/01/17 02:57:05;;;;;;;;;;;16.80;49.20;;;;;;10251336;28;1966;-73
2023/01/17 03:02:00;;;;;;;;;;;16.80;49.20;;;;;;10250624;28;861;-73
2023/01/17 03:06:55;;;;;;;;;;;16.80;49.20;;;;;;10250101;28;1182;-74
2023/01/17 03:11:51;;;;;;;;;;;16.80;49.10;;;;;;10250325;28;865;-74
2023/01/17 03:16:46;;;;;;;;;;;16.80;49.00;;;;;;10250042;28;1918;-73
2023/01/17 03:21:41;;;;;;;;;;;16.80;49.00;;;;;;10250457;28;905;-74
2023/01/17 03:26:37;;;;;;;;;;;16.80;49.20;;;;;;10249694;28;881;-74
2023/01/17 03:31:32;;;;;;;;;;;16.70;49.00;;;;;;10250128;28;814;-74
2023/01/17 03:36:27;;;;;;;;;;;16.80;49.10;;;;;;10247961;28;1906;-73
2023/01/17 03:41:23;;;;;;;;;;;16.80;48.90;;;;;;10248552;28;1303;-74
2023/01/17 03:46:18;;;;;;;;;;;16.70;48.90;;;;;;10248989;28;813;-73
2023/01/17 03:51:14;;;;;;;;;;;16.80;49.00;;;;;;10248687;28;929;-73
2023/01/17 03:56:09;;;;;;;;;;;16.70;49.00;;;;;;10248532;28;1969;-73
2023/01/17 04:01:04;;;;;;;;;;;16.70;49.10;;;;;;10247844;28;881;-73
2023/01/17 04:06:00;;;;;;;;;;;16.70;49.00;;;;;;10248112;28;1158;-73
2023/01/17 04:10:55;;;;;;;;;;;16.70;49.00;;;;;;10247836;28;612;-73
2023/01/17 04:15:51;;;;;;;;;;;16.70;49.00;;;;;;10247788;28;1918;-74
2023/01/17 04:20:46;;;;;;;;;;;16.70;49.00;;;;;;10247630;28;869;-73
2023/01/17 04:25:41;;;;;;;;;;;16.70;49.00;;;;;;10247460;28;976;-74
2023/01/17 04:30:37;;;;;;;;;;;16.80;49.00;;;;;;10247897;28;809;-73
2023/01/17 04:35:32;;;;;;;;;;;16.80;48.90;;;;;;10247006;28;1965;-73
2023/01/17 04:40:28;;;;;;;;;;;16.80;48.80;;;;;;10246124;28;994;-74
2023/01/17 04:45:23;;;;;;;;;;;16.70;48.90;;;;;;10247327;28;864;-73
2023/01/17 04:50:19;;;;;;;;;;;16.70;49.00;;;;;;10246308;28;821;-74
2023/01/17 04:55:14;;;;;;;;;;;16.70;48.80;;;;;;10246974;28;1902;-73
2023/01/17 05:00:10;;;;;;;;;;;16.70;48.80;;;;;;10246131;28;899;-73
2023/01/17 05:05:06;;;;;;;;;;;16.70;48.80;;;;;;10246554;28;883;-73
2023/01/17 05:10:01;;;;;;;;;;;16.70;48.70;;;;;;10245584;28;1535;-73
2023/01/17 05:14:56;;;;;;;;;;;16.70;48.80;;;;;;10246063;28;1918;-74
2023/01/17 05:19:52;;;;;;;;;;;16.70;48.70;;;;;;10246583;28;900;-73
2023/01/17 05:24:47;;;;;;;;;;;16.70;48.50;;;;;;10245289;28;870;-74
2023/01/17 05:29:42;;;;;;;;;;;16.70;48.30;;;;;;10246219;28;859;-74
2023/01/17 05:34:38;;;;;;;;;;;16.80;48.40;;;;;;10244263;28;1894;-73
2023/01/17 05:39:33;;;;;;;;;;;16.80;48.30;;;;;;10244740;28;982;-73
2023/01/17 05:44:30;;;;;;;;;;;16.80;48.20;;;;;;10243957;28;1142;-73
2023/01/17 05:49:25;;;;;;;;;;;16.80;48.20;;;;;;10243927;28;892;-73
2023/01/17 05:54:20;;;;;;;;;;;16.80;48.10;;;;;;10244309;28;1985;-73
2023/01/17 05:59:16;;;;;;;;;;;16.80;48.20;;;;;;10243595;28;802;-79
2023/01/17 06:04:12;;;;;;;;;;;16.80;48.20;;;;;;10244113;28;853;-77
2023/01/17 06:09:07;;;;;;;;;;;16.80;48.20;;;;;;10243325;28;1248;-73
2023/01/17 06:14:02;;;;;;;;;;;16.80;48.20;;;;;;10243541;28;1926;-73
2023/01/17 06:18:58;;;;;;;;;;;17.10;48.80;;;;;;10243867;28;874;-73
2023/01/17 06:23:53;;;;;;;;;;;17.20;49.90;;;;;;10243615;28;864;-73
2023/01/17 06:28:49;;;;;;;;;;;17.30;50.10;;;;;;10244165;28;698;-73
2023/01/17 06:33:44;;;;;;;;;;;17.30;49.90;;;;;;10243301;28;879;-73
2023/01/17 06:38:39;;;;;;;;;;;17.30;49.90;;;;;;10244334;28;1946;-73
2023/01/17 06:43:35;;;;;;;;;;;17.40;49.20;;;;;;10243694;28;938;-72
2023/01/17 06:48:30;;;;;;;;;;;17.40;49.90;;;;;;10243362;28;797;-72
2023/01/17 06:53:25;;;;;;;;;;;17.40;49.40;;;;;;10243251;28;983;-71
2023/01/17 06:58:21;;;;;;;;;;;17.30;49.60;;;;;;10243159;28;1952;-71
2023/01/17 07:03:16;;;;;;;;;;;17.40;49.80;;;;;;10243039;28;863;-71
2023/01/17 07:08:11;;;;;;;;;;;17.30;49.70;;;;;;10242718;28;1149;-72
2023/01/17 07:13:07;;;;;;;;;;;17.30;49.80;;;;;;10247165;28;1028;-72
2023/01/17 07:18:02;;;;;;;;;;;17.30;49.70;;;;;;10248486;28;1918;-75
2023/01/17 07:22:58;;;;;;;;;;;17.20;50.00;;;;;;10249844;28;886;-75
2023/01/17 07:27:53;;;;;;;;;;;17.00;50.40;;;;;;10250293;28;841;-75
2023/01/17 07:32:49;;;;;;;;;;;16.90;50.30;;;;;;10249845;28;881;-74
2023/01/17 07:37:44;;;;;;;;;;;16.90;50.20;;;;;;10248884;28;1973;-75
2023/01/17 07:42:39;;;;;;;;;;;16.90;50.00;;;;;;10250341;28;845;-77
2023/01/17 07:47:35;;;;;;;;;;;16.90;49.90;;;;;;10249011;28;887;-73
2023/01/17 07:52:30;;;;;;;;;;;16.90;49.80;;;;;;10248850;28;858;-75
2023/01/17 07:57:26;;;;;;;;;;;16.90;49.80;;;;;;10249184;28;1902;-75
2023/01/17 08:02:21;;;;;;;;;;;16.90;49.70;;;;;;10249127;28;1003;-75
2023/01/17 08:07:16;;;;;;;;;;;16.90;49.70;;;;;;10248025;28;1412;-78
2023/01/17 08:12:12;;;;;;;;;;;16.90;49.60;;;;;;10247841;28;794;-84
2023/01/17 08:17:07;;;;;;;;;;;16.90;49.40;;;;;;10248479;28;1918;-80
2023/01/17 08:22:03;;;;;;;;;;;17.00;49.60;;;;;;10246393;28;849;-73
2023/01/17 08:26:58;;;;;;;;;;;17.10;49.80;;;;;;10248911;28;806;-72
2023/01/17 08:31:54;;;;;;;;;;;17.20;50.10;;;;;;10247320;28;806;-74
2023/01/17 08:36:49;;;;;;;;;;;17.20;50.10;;;;;;10246152;28;1911;-78
2023/01/17 08:41:44;;;;;;;;;;;17.10;50.50;;;;;;10247187;28;867;-79
2023/01/17 08:46:40;;;;;;;;;;;16.90;50.50;;;;;;10246748;28;822;-78
2023/01/17 08:51:36;;;;;;;;;;;16.80;50.40;;;;;;10246544;28;884;-74
2023/01/17 08:56:31;;;;;;;;;;;16.80;50.30;;;;;;10246282;28;1902;-80
2023/01/17 09:01:27;;;;;;;;;;;16.70;50.20;;;;;;10246158;28;882;-79
2023/01/17 09:06:22;;;;;;;;;;;16.80;49.80;;;;;;10246051;28;1258;-75
2023/01/17 09:11:18;;;;;;;;;;;16.80;49.90;;;;;;10245787;28;892;-77
2023/01/17 09:16:13;;;;;;;;;;;16.80;49.80;;;;;;10246179;28;1954;-79
2023/01/17 09:21:08;;;;;;;;;;;16.80;49.50;;;;;;10242027;28;1141;-79
2023/01/17 09:26:04;;;;;;;;;;;16.80;49.50;;;;;;10245522;28;887;-80
2023/01/17 09:30:59;;;;;;;;;;;16.80;49.60;;;;;;10245470;28;889;-78
2023/01/17 09:35:54;;;;;;;;;;;16.80;49.50;;;;;;10284693;28;1969;-80
2023/01/17 09:40:50;;;;;;;;;;;16.80;49.50;;;;;;10284910;28;912;-79
2023/01/17 09:45:45;;;;;;;;;;;16.80;49.40;;;;;;10285683;28;855;-80
2023/01/17 09:50:40;;;;;;;;;;;16.80;49.40;;;;;;10285140;28;892;-81
2023/01/17 09:55:36;;;;;;;;;;;16.80;49.40;;;;;;10284230;28;1910;-78
2023/01/17 10:00:31;;;;;;;;;;;16.80;49.30;;;;;;10285758;28;916;-78
2023/01/17 10:05:27;;;;;;;;;;;16.80;49.30;;;;;;10284668;28;855;-79
2023/01/17 10:10:22;;;;;;;;;;;16.80;49.20;;;;;;10285216;28;1365;-76
2023/01/17 10:15:17;;;;;;;;;;;16.80;49.30;;;;;;10285236;28;1914;-76
2023/01/17 10:20:13;;;;;;;;;;;16.80;49.10;;;;;;10284316;28;869;-78
2023/01/17 10:25:11;;;;;;;;;;;16.80;49.20;;;;;;10283695;28;853;-77
2023/01/17 10:30:07;;;;;;;;;;;16.90;49.10;;;;;;10284143;28;986;-78
2023/01/17 10:35:02;;;;;;;;;;;16.90;49.10;;;;;;10283623;28;1910;-77
2023/01/17 10:39:58;;;;;;;;;;;16.90;49.60;;;;;;10283891;28;903;-76
2023/01/17 10:44:53;;;;;;;;;;;17.00;50.30;;;;;;10284113;28;962;-78
2023/01/17 10:49:50;;;;;;;;;;;17.00;50.60;;;;;;10291631;28;1161;-78
2023/01/17 10:54:48;;;;;;;;;;;17.00;50.70;;;;;;10291493;28;1960;-78
2023/01/17 10:59:44;;;;;;;;;;;17.00;50.80;;;;;;10291505;28;891;-80
2023/01/17 11:04:39;;;;;;;;;;;16.90;51.00;;;;;;10291178;28;898;-81
2023/01/17 11:09:34;;;;;;;;;;;16.90;50.80;;;;;;10291343;28;1437;-79
2023/01/17 11:14:30;;;;;;;;;;;16.90;51.00;;;;;;10290773;28;1906;-82
2023/01/17 11:19:26;;;;;;;;;;;16.80;50.50;;;;;;10290353;28;1183;-82
2023/01/17 11:24:21;;;;;;;;;;;16.80;50.40;;;;;;10290480;28;924;-84
2023/01/17 11:29:17;;;;;;;;;;;16.80;50.30;;;;;;10290425;28;757;-83
2023/01/17 11:34:12;;;;;;;;;;;16.80;50.20;;;;;;10290178;28;1914;-81
2023/01/17 11:39:08;;;;;;;;;;;16.80;50.10;;;;;;10290041;28;922;-80
2023/01/17 11:44:03;;;;;;;;;;;16.80;50.10;;;;;;10289841;28;949;-80
2023/01/17 11:48:59;;;;;;;;;;;16.80;49.90;;;;;;10289662;28;806;-87
2023/01/17 11:53:54;;;;;;;;;;;16.80;49.90;;;;;;10288854;28;871;-85
2023/01/17 11:58:50;;;;;;;;;;;16.80;49.90;;;;;;10288185;28;1972;-74
2023/01/17 12:03:45;;;;;;;;;;;17.00;50.40;;;;;;10289081;28;781;-89
2023/01/17 12:08:40;;;;;;;;;;;17.20;51.10;;;;;;10288219;28;1316;-90
2023/01/17 12:18:50;;;;;;;;;;;17.00;50.90;;;;;;10288332;28;1909;-86
2023/01/17 12:23:45;;;;;;;;;;;17.00;50.80;;;;;;10288178;28;785;-79
2023/01/17 12:28:40;;;;;;;;;;;17.00;50.60;;;;;;10288237;28;801;-75
2023/01/17 12:33:36;;;;;;;;;;;17.00;50.60;;;;;;10288206;28;789;-79
2023/01/17 12:38:31;;;;;;;;;;;17.00;50.40;;;;;;10287597;28;1894;-81
2023/01/17 12:43:27;;;;;;;;;;;17.00;50.40;;;;;;10286829;28;904;-80
2023/01/17 12:48:22;;;;;;;;;;;17.00;50.20;;;;;;10287806;28;865;-80
2023/01/17 12:53:17;;;;;;;;;;;16.90;50.10;;;;;;10287035;28;767;-83
2023/01/17 12:58:13;;;;;;;;;;;16.90;50.00;;;;;;10287165;28;1947;-82
2023/01/17 13:03:08;;;;;;;;;;;17.00;49.90;;;;;;10286723;28;908;-77
2023/01/17 13:08:03;;;;;;;;;;;17.00;49.80;;;;;;10286454;28;1197;-73
2023/01/17 13:12:59;;;;;;;;;;;17.40;51.20;;;;;;10286287;28;849;-73
2023/01/17 13:17:54;;;;;;;;;;;17.60;51.70;;;;;;10286336;28;1906;-73
2023/01/17 13:22:49;;;;;;;;;;;17.60;52.00;;;;;;10286141;28;860;-73
2023/01/17 13:27:45;;;;;;;;;;;17.70;51.70;;;;;;10285827;28;734;-74
2023/01/17 13:32:40;;;;;;;;;;;17.80;51.30;;;;;;10286110;28;850;-74
2023/01/17 13:37:36;;;;;;;;;;;17.80;51.20;;;;;;10245062;28;1926;-74
2023/01/17 13:42:31;;;;;;;;;;;17.90;51.30;;;;;;10244767;28;907;-73
2023/01/17 13:47:26;;;;;;;;;;;17.90;51.20;;;;;;10244586;28;1105;-83
2023/01/17 13:52:22;;;;;;;;;;;18.00;51.30;;;;;;10244482;28;900;-84
2023/01/17 13:57:17;;;;;;;;;;;17.80;51.10;;;;;;10244655;28;1957;-83
2023/01/17 14:02:12;;;;;;;;;;;17.70;51.10;;;;;;10245086;28;861;-83
2023/01/17 14:07:08;;;;;;;;;;;17.70;51.00;;;;;;10244315;28;1288;-83
2023/01/17 14:12:03;;;;;;;;;;;17.60;50.80;;;;;;10244670;28;864;-78
2023/01/17 14:16:59;;;;;;;;;;;17.60;50.80;;;;;;10245057;28;1914;-78
2023/01/17 14:21:54;;;;;;;;;;;17.60;50.70;;;;;;10247629;28;897;-78
2023/01/17 14:26:50;;;;;;;;;;;17.60;50.50;;;;;;10251527;28;983;-76
2023/01/17 14:31:45;;;;;;;;;;;17.50;50.50;;;;;;10251415;28;878;-77
2023/01/17 14:36:41;;;;;;;;;;;17.50;50.50;;;;;;10252048;28;1958;-76
2023/01/17 14:41:36;;;;;;;;;;;17.50;50.40;;;;;;10251196;28;988;-74
2023/01/17 14:46:31;;;;;;;;;;;17.40;50.30;;;;;;10251136;28;884;-74
2023/01/17 14:51:27;;;;;;;;;;;17.40;50.20;;;;;;10251506;28;885;-75
2023/01/17 14:56:22;;;;;;;;;;;17.40;50.30;;;;;;10250570;28;1950;-74
2023/01/17 15:01:18;;;;;;;;;;;17.40;50.80;;;;;;10251102;28;840;-74
2023/01/17 15:06:13;;;;;;;;;;;17.40;50.30;;;;;;10249919;28;1142;-73
2023/01/17 15:11:08;;;;;;;;;;;17.40;50.30;;;;;;10251495;28;893;-74
2023/01/17 15:16:04;;;;;;;;;;;17.70;51.20;;;;;;10250537;28;1914;-73
2023/01/17 15:20:59;;;;;;;;;;;17.80;51.70;;;;;;10249831;28;817;-79
2023/01/17 15:25:55;;;;;;;;;;;17.80;52.50;;;;;;10249852;28;825;-79
2023/01/17 15:30:50;;;;;;;;;;;17.70;52.90;;;;;;10249395;28;891;-80
2023/01/17 15:35:46;;;;;;;;;;;17.50;52.50;;;;;;10248479;28;2002;-82
2023/01/17 15:40:41;;;;;;;;;;;17.40;52.40;;;;;;10249239;28;918;-80
2023/01/17 15:45:37;;;;;;;;;;;17.30;52.20;;;;;;10278183;28;1149;-82
2023/01/17 15:50:35;;;;;;;;;;;17.30;52.00;;;;;;10289903;28;870;-82
2023/01/17 15:55:30;;;;;;;;;;;17.20;51.90;;;;;;10289603;28;1956;-76
2023/01/17 16:00:28;;;;;;;;;;;17.20;51.90;;;;;;10289615;28;955;-82
2023/01/17 16:05:24;;;;;;;;;;;17.10;51.70;;;;;;10288977;28;774;-80
2023/01/17 16:10:20;;;;;;;;;;;17.10;51.70;;;;;;10287771;28;1511;-83
2023/01/17 16:15:15;;;;;;;;;;;17.20;51.50;;;;;;10288259;28;1918;-81
2023/01/17 16:20:10;;;;;;;;;;;17.10;51.40;;;;;;10289242;28;889;-82
2023/01/17 16:25:06;;;;;;;;;;;17.10;51.30;;;;;;10288547;28;853;-78
2023/01/17 16:30:01;;;;;;;;;;;17.10;51.30;;;;;;10288415;28;793;-82
2023/01/17 16:34:57;;;;;;;;;;;17.10;51.30;;;;;;10287543;28;1961;-81
2023/01/17 16:39:52;;;;;;;;;;;17.10;51.20;;;;;;10286321;28;960;-78
2023/01/17 16:44:47;;;;;;;;;;;17.10;51.20;;;;;;10287193;28;746;-80
2023/01/17 16:49:43;;;;;;;;;;;17.10;51.10;;;;;;10287107;28;797;-79
2023/01/17 16:54:38;;;;;;;;;;;17.10;51.00;;;;;;10286211;28;1961;-80
2023/01/17 16:59:33;;;;;;;;;;;17.10;51.00;;;;;;10287247;28;810;-83
2023/01/17 17:04:29;;;;;;;;;;;17.10;50.80;;;;;;10286293;28;1022;-76
2023/01/17 17:09:24;;;;;;;;;;;17.20;51.30;;;;;;10287310;28;1169;-75
2023/01/17 17:14:20;;;;;;;;;;;17.50;51.70;;;;;;10286076;28;1910;-80
2023/01/17 17:19:15;;;;;;;;;;;17.70;52.00;;;;;;10285874;28;821;-76
2023/01/17 17:24:10;;;;;;;;;;;17.50;52.20;;;;;;10286483;28;878;-82
2023/01/17 17:29:06;;;;;;;;;;;17.40;52.10;;;;;;10285848;28;940;-78
2023/01/17 17:34:01;;;;;;;;;;;17.30;52.10;;;;;;10285010;28;916;-78
2023/01/17 17:38:56;;;;;;;;;;;17.30;52.10;;;;;;10285373;28;1890;-77
2023/01/17 17:43:52;;;;;;;;;;;17.40;52.00;;;;;;10285689;28;778;-78
2023/01/17 17:48:47;;;;;;;;;;;17.40;52.10;;;;;;10285950;28;830;-78
2023/01/17 17:53:43;;;;;;;;;;;17.40;51.80;;;;;;10284708;28;862;-72
2023/01/17 17:58:38;;;;;;;;;;;17.50;52.20;;;;;;10283728;28;1906;-79
2023/01/17 18:03:33;;;;;;;;;;;17.70;52.50;;;;;;10284581;28;928;-72
2023/01/17 18:08:32;;;;;;;;;;;17.80;52.70;;;;;;10271808;28;1452;-74
2023/01/17 18:13:28;;;;;;;;;;;17.80;52.70;;;;;;10240508;28;1062;-74
2023/01/17 18:18:23;;;;;;;;;;;17.80;52.40;;;;;;10242971;28;1910;-74
2023/01/17 18:23:19;;;;;;;;;;;17.80;52.50;;;;;;10243244;28;872;-74
2023/01/17 18:28:14;;;;;;;;;;;17.90;52.60;;;;;;10242501;28;837;-74
2023/01/17 18:33:11;;;;;;;;;;;17.80;52.50;;;;;;10243363;28;906;-74
2023/01/17 18:38:06;;;;;;;;;;;17.80;52.50;;;;;;10243765;28;1961;-74
2023/01/17 18:43:02;;;;;;;;;;;17.90;52.50;;;;;;10243749;28;797;-73
2023/01/17 18:47:58;;;;;;;;;;;17.90;52.60;;;;;;10244186;28;851;-77
2023/01/17 18:52:54;;;;;;;;;;;17.90;52.60;;;;;;10243234;28;866;-78
2023/01/17 18:57:49;;;;;;;;;;;17.90;52.60;;;;;;10242910;28;1910;-78
2023/01/17 19:02:45;;;;;;;;;;;17.90;52.40;;;;;;10242638;28;1120;-77
2023/01/17 19:07:40;;;;;;;;;;;17.90;52.50;;;;;;10245458;28;1745;-73
2023/01/17 19:12:35;;;;;;;;;;;17.90;52.30;;;;;;10250491;28;944;-74
2023/01/17 19:17:31;;;;;;;;;;;17.90;52.20;;;;;;10249864;28;1906;-74
2023/01/17 19:22:26;;;;;;;;;;;17.90;52.30;;;;;;10249271;28;762;-71
2023/01/17 19:27:21;;;;;;;;;;;17.90;52.10;;;;;;10249767;28;884;-71
2023/01/17 19:32:17;;;;;;;;;;;17.90;52.00;;;;;;10249497;28;853;-75
2023/01/17 19:37:13;;;;;;;;;;;18.00;52.00;;;;;;10249407;28;1967;-82
2023/01/17 19:42:14;;;;;;;;;;;17.90;51.80;;;;;;10249052;28;1094;-82
2023/01/17 19:47:09;;;;;;;;;;;17.80;52.00;;;;;;10249020;28;942;-82
2023/01/17 19:52:05;;;;;;;;;;;17.70;52.20;;;;;;10248771;28;962;-82
2023/01/17 19:57:00;;;;;;;;;;;17.60;52.20;;;;;;10248801;28;1922;-82
2023/01/17 20:01:55;;;;;;;;;;;17.60;52.20;;;;;;10248085;28;798;-73
2023/01/17 20:06:51;;;;;;;;;;;17.60;52.20;;;;;;10248163;28;1253;-79
2023/01/17 20:11:47;;;;;;;;;;;17.60;52.10;;;;;;10247109;28;885;-79
2023/01/17 20:16:46;;;;;;;;;;;17.60;52.00;;;;;;10247684;28;1969;-76
2023/01/17 20:21:41;;;;;;;;;;;17.60;52.00;;;;;;10246718;28;954;-78
2023/01/17 20:26:36;;;;;;;;;;;17.60;51.80;;;;;;10248223;28;863;-79
2023/01/17 20:31:35;;;;;;;;;;;17.60;51.90;;;;;;10278108;28;1074;-77
2023/01/17 20:36:32;;;;;;;;;;;17.50;51.80;;;;;;10287490;28;1898;-77
2023/01/17 20:41:27;;;;;;;;;;;17.50;51.90;;;;;;10287476;28;981;-76
2023/01/17 20:46:22;;;;;;;;;;;17.40;51.90;;;;;;10288236;28;836;-77
2023/01/17 20:51:18;;;;;;;;;;;17.40;51.90;;;;;;10287801;28;817;-77
2023/01/17 20:56:13;;;;;;;;;;;17.40;51.90;;;;;;10286848;28;1957;-77
2023/01/17 21:01:08;;;;;;;;;;;17.40;52.00;;;;;;10265883;28;1119;-77
2023/01/17 21:06:04;;;;;;;;;;;17.40;51.90;;;;;;10246077;28;1169;-77
2023/01/17 21:10:59;;;;;;;;;;;17.40;51.90;;;;;;10245607;28;830;-77
2023/01/17 21:15:54;;;;;;;;;;;17.30;51.90;;;;;;10245869;28;1983;-77
2023/01/17 21:20:50;;;;;;;;;;;17.30;51.80;;;;;;10245418;28;845;-77
2023/01/17 21:25:45;;;;;;;;;;;17.30;51.80;;;;;;10245713;28;778;-79
2023/01/17 21:30:41;;;;;;;;;;;17.30;51.80;;;;;;10244883;28;880;-79
2023/01/17 21:35:36;;;;;;;;;;;17.30;51.80;;;;;;10245137;28;1910;-76
2023/01/17 21:40:31;;;;;;;;;;;17.30;51.70;;;;;;10244644;28;845;-79
2023/01/17 21:45:30;;;;;;;;;;;17.30;51.70;;;;;;10244982;28;867;-77
2023/01/17 21:50:26;;;;;;;;;;;17.30;51.70;;;;;;10245260;28;814;-77
2023/01/17 22:00:35;;;;;;;;;;;17.30;51.60;;;;;;10244566;28;769;-76
2023/01/17 22:05:30;;;;;;;;;;;17.30;51.50;;;;;;10244933;28;877;-76
2023/01/17 22:10:26;;;;;;;;;;;17.20;51.50;;;;;;10244884;28;1216;-76
2023/01/17 22:15:22;;;;;;;;;;;17.20;51.50;;;;;;10244576;28;1927;-76
2023/01/17 22:20:17;;;;;;;;;;;17.30;51.40;;;;;;10243849;28;870;-76
2023/01/17 22:25:13;;;;;;;;;;;17.30;51.50;;;;;;10243870;28;890;-75
2023/01/17 22:30:11;;;;;;;;;;;17.20;51.30;;;;;;10243238;28;869;-89
2023/01/17 22:35:07;;;;;;;;;;;17.20;51.50;;;;;;10243630;28;1910;-87
2023/01/17 22:40:03;;;;;;;;;;;17.20;51.50;;;;;;10242953;28;978;-88
2023/01/17 22:44:59;;;;;;;;;;;17.20;51.40;;;;;;10251236;28;807;-89
2023/01/17 22:49:54;;;;;;;;;;;17.20;51.40;;;;;;10250853;28;864;-87
2023/01/17 22:54:49;;;;;;;;;;;17.20;51.40;;;;;;10251745;28;1902;-86
2023/01/17 22:59:45;;;;;;;;;;;17.20;51.50;;;;;;10251647;28;885;-87
2023/01/17 23:04:40;;;;;;;;;;;17.20;51.40;;;;;;10251280;28;754;-87
2023/01/17 23:09:36;;;;;;;;;;;17.20;51.40;;;;;;10250776;28;1367;-87
2023/01/17 23:19:20;;;;;;;;;;;17.10;51.30;;;;;;10250177;28;1910;-77
2023/01/17 23:19:47;;;;;;;;;;;17.10;51.40;;;;;;10249413;28;832;-76
2023/01/17 23:24:42;;;;;;;;;;;17.10;51.30;;;;;;10250475;28;870;-76
2023/01/17 23:29:37;;;;;;;;;;;17.10;51.30;;;;;;10249914;28;992;-75
2023/01/17 23:34:33;;;;;;;;;;;17.10;51.20;;;;;;10250364;28;1910;-75
2023/01/17 23:39:28;;;;;;;;;;;17.10;51.20;;;;;;10248994;28;1269;-75
2023/01/17 23:44:30;;;;;;;;;;;17.10;51.20;;;;;;10249356;28;784;-75
2023/01/17 23:49:25;;;;;;;;;;;17.10;51.10;;;;;;10249201;28;938;-75
2023/01/17 23:54:21;;;;;;;;;;;17.10;51.00;;;;;;10248938;28;792;-75
2023/01/17 23:59:16;;;;;;;;;;;17.10;51.10;;;;;;10248682;28;1894;-75
